Terminal Aerodrome Forecast
Issued by NWS

Home | Current Version | Previous Version | Text Only | Print | Product List | Glossary On
Versions: 1 2 3 4 5 6 7 8 9 10 11 12 13 14 15 16 17 18 19 20
000
FTUS44 KTSA 251100
TAFBVO
TAF
KBVO 251120Z 2512/2612 00000KT P6SM SKC
      TEMPO 2512/2513 1/4SM FG VV002
     FM251500 18005KT P6SM SKC=

USA.gov is the U.S. government's official web portal to all federal, state and local government web resources and services.